Time;durP1;ratioP1;P1;durP2;ratioP2;P2;SDS_P1;SDS_P2;PMS_P1;PMS_P2;Temp;Humidity;BMP_temperature;BMP_pressure;BME280_temperature;BME280_humidity;BME280_pressure;Samples;Min_cycle;Max_cycle;Signal;HPM_P1;HPM_P2
2023/09/22 00:00:32;;;;;;;10.37;5.63;;;;;;;19.58;100.00;99010.22;5049273;28;20642;-65
2023/09/22 00:02:59;;;;;;;8.57;5.50;;;;;;;19.61;100.00;99012.47;5049144;28;20816;-65
2023/09/22 00:05:27;;;;;;;10.70;5.03;;;;;;;19.62;100.00;99013.25;5048456;28;20760;-65
2023/09/22 00:07:54;;;;;;;8.87;5.70;;;;;;;19.61;100.00;99009.88;5048918;28;20286;-65
2023/09/22 00:10:20;;;;;;;6.50;4.60;;;;;;;19.59;100.00;99011.00;5049128;28;20216;-65
2023/09/22 00:12:47;;;;;;;13.67;5.83;;;;;;;19.51;100.00;99011.84;5048056;28;20201;-65
2023/09/22 00:15:15;;;;;;;8.63;5.40;;;;;;;19.53;100.00;99012.50;5048540;28;20197;-65
2023/09/22 00:17:43;;;;;;;11.83;5.77;;;;;;;19.55;100.00;99009.75;5048837;28;20216;-65
2023/09/22 00:20:13;;;;;;;11.40;5.47;;;;;;;19.57;100.00;99008.56;5048772;28;20201;-65
2023/09/22 00:22:41;;;;;;;10.00;5.40;;;;;;;19.56;100.00;99012.16;5048038;28;20195;-65
2023/09/22 00:25:09;;;;;;;10.03;5.83;;;;;;;19.60;100.00;99005.63;5048577;28;20208;-65
2023/09/22 00:27:36;;;;;;;9.30;4.97;;;;;;;19.53;100.00;99002.13;5048923;28;20291;-65
2023/09/22 00:30:04;;;;;;;10.57;5.47;;;;;;;19.48;100.00;99003.63;5047685;28;20241;-65
2023/09/22 00:32:30;;;;;;;13.40;5.73;;;;;;;19.44;100.00;99003.16;5048546;28;20780;-65
2023/09/22 00:34:57;;;;;;;9.37;5.40;;;;;;;19.39;100.00;99005.44;5048306;28;20637;-65
2023/09/22 00:37:24;;;;;;;10.07;5.17;;;;;;;19.38;100.00;99011.59;5047836;28;20694;-65
2023/09/22 00:39:52;;;;;;;10.80;5.97;;;;;;;19.38;100.00;99015.00;5047949;28;20235;-65
2023/09/22 00:42:19;;;;;;;11.83;5.40;;;;;;;19.40;100.00;99012.22;5048511;28;20208;-65
2023/09/22 00:44:46;;;;;;;9.63;5.40;;;;;;;19.35;100.00;99014.53;5048075;28;20273;-65
2023/09/22 00:47:14;;;;;;;11.17;6.07;;;;;;;19.30;100.00;99009.03;5047991;28;20278;-65
2023/09/22 00:49:42;;;;;;;9.93;5.87;;;;;;;19.23;100.00;99017.50;5048518;28;20492;-65
2023/09/22 00:52:08;;;;;;;10.10;5.73;;;;;;;19.25;100.00;99009.53;5047860;28;20557;-65
2023/09/22 00:54:36;;;;;;;10.70;5.67;;;;;;;19.23;100.00;99007.13;5046978;28;20207;-65
2023/09/22 00:57:04;;;;;;;9.77;5.43;;;;;;;19.22;100.00;99013.28;5048090;28;20256;-65
2023/09/22 00:59:31;;;;;;;11.63;5.60;;;;;;;19.18;100.00;99004.22;5048093;28;20592;-65
2023/09/22 01:01:58;;;;;;;10.40;5.57;;;;;;;19.22;100.00;99009.88;5047192;28;20230;-65
2023/09/22 01:04:25;;;;;;;10.73;5.50;;;;;;;19.28;100.00;99009.19;5047825;28;20215;-65
2023/09/22 01:06:52;;;;;;;9.37;5.07;;;;;;;19.21;100.00;99006.47;5047741;28;20677;-65
2023/09/22 01:09:19;;;;;;;10.37;5.87;;;;;;;19.18;100.00;99008.59;5047389;28;20750;-65
2023/09/22 01:11:45;;;;;;;13.30;5.50;;;;;;;19.21;100.00;99003.09;5047608;28;20202;-65
2023/09/22 01:14:14;;;;;;;9.17;4.97;;;;;;;19.29;100.00;99007.44;5047980;28;20298;-65
2023/09/22 01:16:41;;;;;;;10.90;4.60;;;;;;;19.32;100.00;99007.09;5047557;28;20692;-65
2023/09/22 01:19:14;;;;;;;11.53;5.30;;;;;;;19.35;100.00;98993.81;5046951;28;20237;-65
2023/09/22 01:21:42;;;;;;;9.53;4.83;;;;;;;19.35;100.00;98999.78;5047739;28;20662;-65
2023/09/22 01:24:10;;;;;;;12.30;4.93;;;;;;;19.41;100.00;98993.13;5047751;28;20681;-65
2023/09/22 01:26:38;;;;;;;8.90;5.20;;;;;;;19.45;100.00;99007.34;5065761;28;20213;-65
2023/09/22 01:29:05;;;;;;;9.37;4.87;;;;;;;19.53;100.00;98991.75;5056579;28;20297;-65
2023/09/22 01:31:33;;;;;;;9.10;5.07;;;;;;;19.58;100.00;98994.66;5047734;28;20213;-65
2023/09/22 01:34:01;;;;;;;7.97;4.47;;;;;;;19.56;100.00;99006.97;5047014;28;20196;-65
2023/09/22 01:36:28;;;;;;;10.73;4.70;;;;;;;19.58;100.00;99002.44;5047427;28;20676;-65
2023/09/22 01:38:59;;;;;;;7.13;4.20;;;;;;;19.63;100.00;99002.72;5047533;28;20268;-65
2023/09/22 01:41:26;;;;;;;8.63;4.80;;;;;;;19.67;100.00;99011.81;5047535;28;20666;-65
2023/09/22 01:43:53;;;;;;;8.23;4.10;;;;;;;19.72;100.00;99010.47;5046955;28;20299;-65
2023/09/22 01:46:20;;;;;;;8.33;4.50;;;;;;;19.71;100.00;99014.06;5049137;28;20241;-65
2023/09/22 01:48:47;;;;;;;8.60;4.67;;;;;;;19.68;100.00;99012.59;5051428;28;20690;-65
2023/09/22 01:51:14;;;;;;;6.63;4.53;;;;;;;19.61;100.00;99020.25;5051247;28;20233;-65
2023/09/22 01:53:41;;;;;;;8.27;4.13;;;;;;;19.61;100.00;99009.06;5051680;28;20632;-65
2023/09/22 01:56:09;;;;;;;7.57;4.23;;;;;;;19.61;100.00;99015.06;5051666;28;20205;-65
2023/09/22 01:58:36;;;;;;;7.90;4.53;;;;;;;19.62;100.00;99019.25;5050687;28;20240;-65
2023/09/22 02:01:02;;;;;;;10.97;5.07;;;;;;;19.58;100.00;99015.41;5051108;28;20204;-65
2023/09/22 02:03:30;;;;;;;7.77;4.80;;;;;;;19.40;100.00;99023.44;5051645;28;20205;-65
2023/09/22 02:05:58;;;;;;;8.27;4.37;;;;;;;19.28;100.00;99018.78;5050925;28;20198;-65
2023/09/22 02:08:25;;;;;;;11.57;5.20;;;;;;;19.44;100.00;99023.88;5050913;28;20196;-65
2023/09/22 02:10:52;;;;;;;8.77;4.40;;;;;;;19.42;100.00;99016.28;5051226;28;20209;-65
2023/09/22 02:13:20;;;;;;;15.53;5.07;;;;;;;19.41;100.00;99021.63;5051016;28;20235;-65
2023/09/22 02:15:48;;;;;;;13.17;4.73;;;;;;;19.41;100.00;99019.03;5050640;28;20211;-65
2023/09/22 02:18:14;;;;;;;7.20;4.63;;;;;;;19.46;100.00;99021.94;5051055;28;20205;-65
2023/09/22 02:20:43;;;;;;;7.97;4.40;;;;;;;19.44;100.00;99018.72;5051018;28;20236;-65
2023/09/22 02:23:10;;;;;;;8.37;4.53;;;;;;;19.38;100.00;99019.38;5050096;28;20579;-65
2023/09/22 02:25:37;;;;;;;9.03;4.63;;;;;;;19.30;100.00;99019.41;5050824;28;20681;-65
2023/09/22 02:28:05;;;;;;;7.63;4.07;;;;;;;19.23;100.00;99024.47;5050773;28;20210;-65
2023/09/22 02:30:35;;;;;;;9.70;4.60;;;;;;;19.26;100.00;99024.13;5050201;28;20644;-65
2023/09/22 02:33:01;;;;;;;10.87;4.50;;;;;;;19.21;100.00;99034.19;5050350;28;20241;-65
2023/09/22 02:35:28;;;;;;;7.73;4.30;;;;;;;19.21;100.00;99039.38;5050970;28;20203;-65
2023/09/22 02:37:55;;;;;;;8.10;4.73;;;;;;;19.12;100.00;99040.38;5050370;28;20296;-65
2023/09/22 02:40:22;;;;;;;10.07;5.00;;;;;;;19.14;100.00;99038.41;5050028;28;20232;-65
2023/09/22 02:42:49;;;;;;;7.60;4.17;;;;;;;19.11;100.00;99038.75;5050751;28;20211;-65
2023/09/22 02:45:16;;;;;;;10.50;4.80;;;;;;;19.11;100.00;99043.94;5050205;28;20707;-65
2023/09/22 02:47:44;;;;;;;8.43;4.60;;;;;;;19.04;100.00;99041.19;5050117;28;20209;-65
2023/09/22 02:50:15;;;;;;;6.37;4.10;;;;;;;18.79;100.00;99055.97;5050376;28;20648;-65
2023/09/22 02:52:42;;;;;;;9.83;4.13;;;;;;;18.63;100.00;99054.19;5050611;28;20200;-65
2023/09/22 02:55:10;;;;;;;8.60;4.73;;;;;;;18.66;100.00;99066.00;5049791;28;20204;-65
2023/09/22 02:57:37;;;;;;;6.67;4.20;;;;;;;18.77;100.00;99053.56;5049911;28;20203;-66
2023/09/22 03:00:11;;;;;;;8.03;4.27;;;;;;;18.83;100.00;99046.13;5050293;28;20230;-65
2023/09/22 03:02:38;;;;;;;8.17;4.73;;;;;;;18.88;100.00;99043.81;5049765;28;20211;-65
2023/09/22 03:05:09;;;;;;;7.27;4.40;;;;;;;18.74;100.00;99043.53;5049934;28;20214;-65
2023/09/22 03:07:36;;;;;;;10.43;4.43;;;;;;;18.86;100.00;99032.84;5050232;28;20206;-65
2023/09/22 03:10:06;;;;;;;9.23;4.27;;;;;;;18.80;100.00;99042.06;5049745;28;20223;-65
2023/09/22 03:12:34;;;;;;;7.97;4.47;;;;;;;18.81;100.00;99045.47;5048780;28;20201;-65
2023/09/22 03:15:01;;;;;;;8.73;4.50;;;;;;;18.61;100.00;99045.78;5048686;28;20203;-65
2023/09/22 03:17:28;;;;;;;10.13;4.77;;;;;;;18.70;100.00;99052.59;5049051;28;20230;-65
2023/09/22 03:19:57;;;;;;;8.83;4.37;;;;;;;18.45;100.00;99049.19;5049904;28;20231;-65
2023/09/22 03:22:26;;;;;;;6.90;4.33;;;;;;;18.55;100.00;99049.03;5050052;28;20249;-65
2023/09/22 03:24:53;;;;;;;8.07;4.60;;;;;;;18.57;100.00;99051.47;5049109;28;20211;-65
2023/09/22 03:27:19;;;;;;;10.47;4.40;;;;;;;18.56;100.00;99061.00;5049466;28;20204;-65
2023/09/22 03:29:46;;;;;;;10.27;4.67;;;;;;;18.50;100.00;99051.28;5049793;28;20674;-65
2023/09/22 03:32:14;;;;;;;8.67;4.33;;;;;;;18.45;100.00;99056.16;5049363;28;20213;-65
2023/09/22 03:34:41;;;;;;;8.33;4.33;;;;;;;18.45;100.00;99059.56;5049246;28;20215;-65
2023/09/22 03:37:09;;;;;;;13.37;4.63;;;;;;;18.48;100.00;99050.66;5049537;28;20205;-65
2023/09/22 03:39:38;;;;;;;12.47;4.80;;;;;;;18.51;100.00;99035.59;5048743;28;20330;-65
2023/09/22 03:42:06;;;;;;;9.13;4.63;;;;;;;18.48;100.00;99045.47;5049298;28;20254;-65
2023/09/22 03:44:34;;;;;;;8.67;4.43;;;;;;;18.48;100.00;99042.88;5049590;28;20204;-65
2023/09/22 03:47:01;;;;;;;14.07;4.70;;;;;;;18.46;100.00;99042.22;5049514;28;20233;-65
2023/09/22 03:49:28;;;;;;;8.33;4.33;;;;;;;18.36;100.00;99049.38;5048766;28;20203;-65
2023/09/22 03:51:55;;;;;;;9.33;5.23;;;;;;;18.20;100.00;99050.97;5049273;28;20202;-65
2023/09/22 03:54:22;;;;;;;9.97;4.37;;;;;;;18.27;100.00;99045.97;5049306;28;20774;-65
2023/09/22 03:56:50;;;;;;;7.33;4.80;;;;;;;18.19;100.00;99044.16;5048655;28;20198;-65
2023/09/22 03:59:17;;;;;;;10.13;4.90;;;;;;;18.26;100.00;99047.72;5048848;28;20635;-65
2023/09/22 04:01:44;;;;;;;9.37;4.60;;;;;;;18.32;100.00;99049.69;5049114;28;20231;-65
2023/09/22 04:04:11;;;;;;;10.10;4.60;;;;;;;18.36;100.00;99054.53;5048436;28;20223;-65
2023/09/22 04:06:38;;;;;;;7.90;4.37;;;;;;;18.31;100.00;99067.97;5048374;28;20200;-65
2023/09/22 04:09:07;;;;;;;10.07;4.97;;;;;;;18.07;100.00;99076.50;5048572;28;20207;-65
2023/09/22 04:11:34;;;;;;;6.50;4.33;;;;;;;18.05;100.00;99083.59;5049125;28;20199;-65
2023/09/22 04:14:03;;;;;;;10.80;4.70;;;;;;;18.10;100.00;99071.00;5048244;28;20212;-65
2023/09/22 04:16:30;;;;;;;9.83;4.53;;;;;;;18.09;100.00;99084.91;5048891;28;20200;-65
2023/09/22 04:18:56;;;;;;;7.43;4.30;;;;;;;18.15;100.00;99083.44;5049024;28;20457;-65
2023/09/22 04:21:23;;;;;;;8.57;5.20;;;;;;;18.10;100.00;99082.16;5047948;28;20230;-65
2023/09/22 04:23:57;;;;;;;10.27;4.70;;;;;;;18.18;100.00;99088.31;5048521;28;20202;-65
2023/09/22 04:26:28;;;;;;;10.13;4.73;;;;;;;18.26;100.00;99076.19;5048757;28;20665;-65
2023/09/22 04:28:56;;;;;;;8.13;5.00;;;;;;;18.37;100.00;99082.84;5048262;28;20196;-65
2023/09/22 04:31:25;;;;;;;11.43;4.90;;;;;;;18.45;100.00;99075.09;5048342;28;20198;-65
2023/09/22 04:33:52;;;;;;;10.07;4.77;;;;;;;18.39;100.00;99074.94;5048548;28;20212;-65
2023/09/22 04:36:21;;;;;;;10.97;5.27;;;;;;;18.36;100.00;99077.84;5048870;28;20260;-65
2023/09/22 04:38:49;;;;;;;13.70;4.43;;;;;;;18.24;100.00;99080.75;5047707;28;20299;-65
2023/09/22 04:41:18;;;;;;;10.03;4.83;;;;;;;18.38;100.00;99083.66;5048451;28;20239;-65
2023/09/22 04:43:45;;;;;;;10.03;4.80;;;;;;;18.48;100.00;99079.13;5048020;28;20227;-65
2023/09/22 04:46:12;;;;;;;8.50;4.73;;;;;;;18.56;100.00;99071.38;5047603;28;20202;-65
2023/09/22 04:48:40;;;;;;;9.67;4.83;;;;;;;18.52;100.00;99065.69;5047907;28;20264;-65
2023/09/22 04:51:07;;;;;;;11.43;5.20;;;;;;;18.47;100.00;99059.38;5048244;28;20538;-65
2023/09/22 04:53:34;;;;;;;6.87;4.43;;;;;;;18.51;100.00;99056.31;5047983;28;20196;-65
2023/09/22 04:56:02;;;;;;;13.37;5.53;;;;;;;18.65;100.00;99054.84;5048042;28;20210;-65
2023/09/22 04:58:29;;;;;;;10.13;4.90;;;;;;;18.78;100.00;99050.00;5048286;28;20664;-65
2023/09/22 05:00:56;;;;;;;8.83;5.53;;;;;;;18.89;100.00;99054.03;5078328;28;20259;-65
2023/09/22 05:03:25;;;;;;;8.77;4.50;;;;;;;18.93;100.00;99057.09;5087317;28;20211;-65
2023/09/22 05:05:53;;;;;;;9.33;5.23;;;;;;;18.97;100.00;99058.41;5076529;28;20200;-65
2023/09/22 05:08:20;;;;;;;8.83;5.27;;;;;;;19.06;100.00;99041.84;5087866;28;20204;-65
2023/09/22 05:10:48;;;;;;;10.40;5.17;;;;;;;19.19;100.00;99041.31;5084052;28;20194;-65
2023/09/22 05:13:15;;;;;;;12.87;5.33;;;;;;;19.28;100.00;99049.88;5070532;28;20201;-65
2023/09/22 05:15:43;;;;;;;8.13;4.77;;;;;;;19.36;100.00;99057.63;5063103;28;20202;-65
2023/09/22 05:18:13;;;;;;;10.40;5.50;;;;;;;19.40;100.00;99056.31;5086116;28;20279;-65
2023/09/22 05:20:40;;;;;;;7.33;4.53;;;;;;;19.51;100.00;99055.94;5086830;28;20708;-66
2023/09/22 05:23:08;;;;;;;8.27;4.90;;;;;;;19.61;100.00;99050.56;5088027;28;20253;-66
2023/09/22 05:25:40;;;;;;;12.27;5.43;;;;;;;19.43;100.00;99058.56;5087377;28;20202;-65
2023/09/22 05:28:08;;;;;;;10.00;4.87;;;;;;;19.39;100.00;99067.66;5087222;28;20787;-65
2023/09/22 05:30:35;;;;;;;16.70;5.40;;;;;;;19.65;100.00;99068.22;5047793;28;20211;-65
2023/09/22 05:33:06;;;;;;;13.70;5.13;;;;;;;19.72;100.00;99067.53;5047302;28;20231;-65
2023/09/22 05:35:34;;;;;;;8.83;5.57;;;;;;;19.83;100.00;99057.59;5047358;28;20210;-65
2023/09/22 05:38:02;;;;;;;9.63;5.23;;;;;;;20.00;100.00;99050.50;5047498;28;20199;-65
2023/09/22 05:40:33;;;;;;;11.63;5.10;;;;;;;20.22;100.00;99055.91;5047499;28;20236;-65
2023/09/22 05:43:00;;;;;;;15.27;5.90;;;;;;;20.32;100.00;99043.47;5046817;28;20198;-64
2023/09/22 05:45:26;;;;;;;8.97;5.60;;;;;;;20.30;100.00;99055.81;5047225;28;20198;-65
2023/09/22 05:47:53;;;;;;;11.23;5.80;;;;;;;20.22;100.00;99061.91;5055731;28;20213;-65
2023/09/22 05:50:20;;;;;;;8.97;5.23;;;;;;;20.32;100.00;99067.66;5066529;28;20213;-65
2023/09/22 05:52:49;;;;;;;7.63;5.13;;;;;;;20.41;100.00;99078.78;5066691;28;20283;-65
2023/09/22 05:55:16;;;;;;;11.97;5.07;;;;;;;20.37;100.00;99089.72;5067937;28;20314;-65
2023/09/22 05:57:44;;;;;;;12.80;5.90;;;;;;;20.49;100.00;99098.69;5067236;28;20661;-65
2023/09/22 06:00:16;;;;;;;11.47;5.60;;;;;;;20.57;100.00;99099.47;5063801;28;22431;-64
2023/09/22 06:02:47;;;;;;;10.10;5.30;;;;;;;20.80;100.00;99098.63;5047551;28;20196;-65
2023/09/22 06:05:14;;;;;;;8.60;5.33;;;;;;;20.97;100.00;99099.28;5047549;28;20256;-64
2023/09/22 06:07:41;;;;;;;11.43;5.70;;;;;;;21.14;100.00;99105.13;5063106;28;20291;-65
2023/09/22 06:10:09;;;;;;;8.77;5.57;;;;;;;21.25;100.00;99117.69;5067262;28;20213;-65
2023/09/22 06:12:37;;;;;;;9.93;5.60;;;;;;;21.48;100.00;99118.44;5067394;28;20205;-64
2023/09/22 06:15:07;;;;;;;8.83;5.30;;;;;;;21.48;100.00;99115.81;5067448;28;20280;-65
2023/09/22 06:17:34;;;;;;;9.63;5.57;;;;;;;21.59;100.00;99109.38;5067227;28;20592;-66
2023/09/22 06:20:08;;;;;;;10.13;5.27;;;;;;;21.78;100.00;99115.78;5067541;28;20531;-64
2023/09/22 06:22:35;;;;;;;9.07;5.53;;;;;;;21.92;100.00;99130.56;5057889;28;20200;-63
2023/09/22 06:25:02;;;;;;;10.25;5.55;;;;;;;22.16;100.00;99120.81;5046771;28;20690;-67
2023/09/22 06:27:29;;;;;;;11.32;5.80;;;;;;;22.35;100.00;99141.06;5061857;28;20199;-64
2023/09/22 06:29:56;;;;;;;8.55;5.53;;;;;;;22.46;100.00;99125.97;5067286;28;20202;-66
2023/09/22 06:32:24;;;;;;;11.45;6.40;;;;;;;22.58;100.00;99129.66;5068317;28;20208;-65
2023/09/22 06:34:53;;;;;;;7.95;5.65;;;;;;;22.88;100.00;99139.94;5070895;28;20213;-66
2023/09/22 06:37:19;;;;;;;9.82;5.88;;;;;;;22.93;100.00;99134.97;5070619;28;20386;-65
2023/09/22 06:39:46;;;;;;;19.98;14.60;;;;;;;23.09;100.00;99134.69;5062098;28;20464;-62
2023/09/22 06:42:13;;;;;;;12.70;6.95;;;;;;;23.19;100.00;99142.19;5070462;28;20577;-62
2023/09/22 06:44:40;;;;;;;12.00;6.57;;;;;;;23.45;100.00;99152.78;5070485;28;20209;-65
2023/09/22 06:47:09;;;;;;;16.23;11.55;;;;;;;23.75;100.00;99151.75;5068735;28;20202;-66
2023/09/22 06:49:37;;;;;;;9.90;6.05;;;;;;;24.17;100.00;99156.72;5070489;28;20202;-64
2023/09/22 06:52:06;;;;;;;11.63;6.45;;;;;;;24.23;100.00;99160.38;5070487;28;20199;-69
2023/09/22 06:54:33;;;;;;;10.65;5.95;;;;;;;24.58;100.00;99170.69;5082292;28;20202;-66
2023/09/22 06:57:02;;;;;;;10.40;5.65;;;;;;;24.82;100.00;99169.31;5069700;28;20199;-62
2023/09/22 06:59:31;;;;;;;9.30;5.38;;;;;;;24.91;99.60;99168.09;5082938;28;20422;-63
2023/09/22 07:01:59;;;;;;;10.77;5.25;;;;;;;25.10;97.68;99181.38;5089978;28;20234;-62
2023/09/22 07:04:26;;;;;;;9.50;5.22;;;;;;;25.39;95.65;99186.19;5072092;28;20203;-61
2023/09/22 07:06:55;;;;;;;8.02;5.28;;;;;;;25.37;92.20;99187.41;5070172;28;20204;-62
2023/09/22 07:09:22;;;;;;;7.43;5.15;;;;;;;25.41;92.63;99186.78;5070007;28;20206;-61
2023/09/22 07:11:49;;;;;;;10.57;4.93;;;;;;;25.47;91.07;99188.59;5075478;28;20284;-64
2023/09/22 07:14:15;;;;;;;9.45;5.05;;;;;;;25.75;91.93;99190.13;5080496;28;20191;-65
2023/09/22 07:16:42;;;;;;;8.63;5.60;;;;;;;26.01;90.70;99191.09;5079315;28;20419;-65
2023/09/22 07:19:09;;;;;;;8.57;5.65;;;;;;;26.22;90.69;99196.00;5078077;28;20199;-66
2023/09/22 07:21:36;;;;;;;8.13;5.00;;;;;;;26.42;88.99;99201.94;5080984;28;20225;-69
2023/09/22 07:24:05;;;;;;;11.68;5.40;;;;;;;26.17;88.60;99198.44;5078626;28;20223;-63
2023/09/22 07:26:32;;;;;;;8.90;4.55;;;;;;;26.43;86.88;99203.53;5084203;28;20263;-67
2023/09/22 07:28:59;;;;;;;10.60;5.00;;;;;;;26.71;91.20;99196.34;5078729;28;20580;-68
2023/09/22 07:31:30;;;;;;;8.63;5.05;;;;;;;26.92;89.40;99205.66;5077937;28;20226;-63
2023/09/22 07:33:57;;;;;;;10.60;5.13;;;;;;;27.16;90.25;99201.47;5074998;28;20199;-66
2023/09/22 07:36:24;;;;;;;9.27;5.40;;;;;;;27.44;85.08;99198.38;5077997;28;20205;-65
2023/09/22 07:38:51;;;;;;;7.95;5.22;;;;;;;27.47;84.39;99200.56;5074723;28;20312;-65
2023/09/22 07:41:20;;;;;;;8.15;4.93;;;;;;;27.53;83.50;99205.72;5069373;28;20237;-61
2023/09/22 07:43:46;;;;;;;7.25;4.70;;;;;;;27.53;83.04;99212.81;5066132;28;20210;-65
2023/09/22 07:46:13;;;;;;;7.05;4.57;;;;;;;27.67;81.77;99209.03;5072369;28;20190;-65
2023/09/22 07:48:40;;;;;;;7.95;4.80;;;;;;;27.81;83.06;99212.34;5072014;28;20215;-65
2023/09/22 07:51:07;;;;;;;11.27;4.63;;;;;;;27.93;80.27;99207.16;5047021;28;20254;-65
2023/09/22 07:53:34;;;;;;;7.55;4.45;;;;;;;28.03;79.10;99207.41;5047448;28;20227;-65
2023/09/22 07:56:01;;;;;;;7.85;4.30;;;;;;;28.34;79.39;99209.03;5049318;28;20573;-64
2023/09/22 07:58:30;;;;;;;8.40;4.30;;;;;;;28.39;74.40;99221.50;5049334;28;20196;-64
2023/09/22 08:00:58;;;;;;;6.47;4.10;;;;;;;28.49;76.97;99227.06;5048953;28;20242;-66
2023/09/22 08:03:26;;;;;;;7.45;4.75;;;;;;;28.71;77.33;99223.91;5053580;28;20202;-66
2023/09/22 08:05:53;;;;;;;17.55;4.68;;;;;;;28.80;74.34;99228.63;5079303;28;20952;-65
2023/09/22 08:08:20;;;;;;;7.78;4.65;;;;;;;28.96;76.14;99218.47;5087515;28;20210;-66
2023/09/22 08:10:47;;;;;;;7.55;4.05;;;;;;;29.15;73.72;99219.19;5087330;28;20668;-66
2023/09/22 08:13:14;;;;;;;8.82;4.60;;;;;;;29.14;72.50;99225.50;5088337;28;20911;-65
2023/09/22 08:15:42;;;;;;;7.78;4.22;;;;;;;29.15;71.76;99219.19;5078491;28;20194;-67
2023/09/22 08:18:10;;;;;;;6.97;4.20;;;;;;;29.43;71.88;99211.38;5079514;28;20603;-66
2023/09/22 08:20:37;;;;;;;5.90;4.03;;;;;;;29.62;70.75;99220.00;5062862;28;20226;-65
2023/09/22 08:23:04;;;;;;;6.05;4.00;;;;;;;29.55;68.51;99217.47;5072863;28;20198;-67
2023/09/22 08:25:31;;;;;;;5.50;4.00;;;;;;;29.44;66.13;99210.38;5079807;28;20226;-66
2023/09/22 08:27:58;;;;;;;6.80;4.30;;;;;;;29.47;69.21;99209.13;5071158;28;20572;-67
2023/09/22 08:30:25;;;;;;;6.32;3.40;;;;;;;29.63;64.48;99218.16;5067440;28;20202;-67
2023/09/22 08:32:54;;;;;;;5.93;3.67;;;;;;;29.64;61.98;99217.13;5060687;28;20228;-68
2023/09/22 08:35:21;;;;;;;6.15;3.90;;;;;;;29.90;67.39;99211.31;5057685;28;20743;-67
2023/09/22 08:37:49;;;;;;;9.80;4.00;;;;;;;29.95;66.05;99215.91;5062631;28;20209;-68
2023/09/22 08:40:17;;;;;;;7.20;3.35;;;;;;;30.05;62.69;99215.28;5056855;28;20198;-66
2023/09/22 08:42:47;;;;;;;5.10;3.55;;;;;;;30.09;65.52;99213.81;5058836;28;20222;-64
2023/09/22 08:45:14;;;;;;;7.03;3.53;;;;;;;30.26;64.01;99209.41;5056981;28;20237;-65
2023/09/22 08:47:45;;;;;;;6.80;3.63;;;;;;;30.38;60.01;99223.34;5056461;28;20287;-63
2023/09/22 08:50:14;;;;;;;7.57;3.88;;;;;;;30.65;55.66;99212.16;5057021;28;20195;-65
2023/09/22 08:52:42;;;;;;;5.18;3.17;;;;;;;30.92;56.18;99209.72;5056929;28;20191;-64
2023/09/22 08:55:12;;;;;;;7.22;3.00;;;;;;;30.66;55.47;99203.19;5056710;28;20692;-65
2023/09/22 08:57:40;;;;;;;7.07;3.50;;;;;;;31.02;56.17;99196.69;5058448;28;20194;-65
2023/09/22 09:00:11;;;;;;;4.82;3.25;;;;;;;31.44;56.99;99198.06;5058779;28;20194;-64
2023/09/22 09:02:39;;;;;;;5.93;3.25;;;;;;;31.13;54.26;99198.44;5056807;28;20459;-64
2023/09/22 09:05:21;;;;;;;5.35;3.50;;;;;;;31.02;58.44;99195.88;5057212;28;20661;-64
2023/09/22 09:07:48;;;;;;;6.95;3.10;;;;;;;31.54;65.09;99187.63;5058502;28;20202;-63
2023/09/22 09:10:29;;;;;;;5.68;3.25;;;;;;;31.70;55.35;99192.03;5058258;28;20196;-65
2023/09/22 09:12:56;;;;;;;4.40;3.10;;;;;;;31.87;51.13;99196.47;5058847;28;20209;-65
2023/09/22 09:15:26;;;;;;;3.85;2.92;;;;;;;32.09;56.54;99178.75;5056384;28;20222;-64
2023/09/22 09:18:04;;;;;;;4.70;3.00;;;;;;;32.37;52.85;99177.69;5060424;28;20219;-64
2023/09/22 09:20:34;;;;;;;4.30;2.45;;;;;;;32.60;54.56;99175.78;5067336;28;20199;-65
2023/09/22 09:23:14;;;;;;;5.38;2.92;;;;;;;32.14;48.50;99176.13;5067943;28;20209;-66
2023/09/22 09:25:45;;;;;;;4.15;2.63;;;;;;;32.36;53.12;99167.34;5067644;28;20663;-65
2023/09/22 09:28:13;;;;;;;4.53;2.97;;;;;;;32.52;53.38;99166.44;5066808;28;20617;-64
2023/09/22 09:30:48;;;;;;;4.40;3.00;;;;;;;32.65;52.72;99166.03;5047552;28;20385;-64
2023/09/22 09:33:15;;;;;;;4.57;2.80;;;;;;;32.52;50.85;99163.81;5048066;28;20256;-64
2023/09/22 09:35:43;;;;;;;5.07;2.80;;;;;;;32.59;49.10;99159.09;5047613;28;20559;-63
2023/09/22 09:38:10;;;;;;;5.57;2.97;;;;;;;32.85;53.07;99159.28;5047284;28;20199;-64
2023/09/22 09:40:41;;;;;;;3.85;2.70;;;;;;;33.06;52.01;99154.94;5047599;28;20203;-62
2023/09/22 09:43:11;;;;;;;6.93;2.90;;;;;;;33.17;48.33;99161.09;5053024;28;20376;-64
2023/09/22 09:45:43;;;;;;;3.35;2.63;;;;;;;33.19;47.11;99157.09;5057734;28;20203;-63
2023/09/22 09:48:14;;;;;;;4.15;2.53;;;;;;;33.29;49.40;99154.53;5048211;28;20435;-64
2023/09/22 09:50:45;;;;;;;4.97;2.65;;;;;;;33.44;43.83;99151.13;5065333;28;20206;-63
2023/09/22 09:53:22;;;;;;;2.78;2.35;;;;;;;33.37;44.54;99150.59;5067555;28;20190;-63
2023/09/22 09:55:52;;;;;;;5.15;3.00;;;;;;;33.42;43.79;99153.25;5067609;28;20598;-61
2023/09/22 09:58:22;;;;;;;5.40;2.70;;;;;;;33.54;47.95;99143.25;5065291;28;20195;-62
2023/09/22 10:00:49;;;;;;;4.38;2.30;;;;;;;33.34;42.65;99138.66;5055914;28;20200;-63
2023/09/22 10:03:17;;;;;;;7.72;2.90;;;;;;;32.52;43.49;99134.69;5046979;28;20224;-62
2023/09/22 10:05:46;;;;;;;4.18;2.70;;;;;;;32.17;47.06;99133.34;5047140;28;20282;-61
2023/09/22 10:08:13;;;;;;;3.97;2.90;;;;;;;32.39;47.97;99143.03;5050129;28;20239;-63
2023/09/22 10:10:41;;;;;;;8.10;3.15;;;;;;;32.53;47.16;99131.00;5051128;28;20218;-64
2023/09/22 10:13:08;;;;;;;5.15;3.22;;;;;;;32.37;48.05;99131.91;5050952;28;20204;-63
2023/09/22 10:15:55;;;;;;;4.45;3.13;;;;;;;32.72;53.09;99131.38;5051096;28;20211;-62
2023/09/22 10:18:24;;;;;;;6.82;3.20;;;;;;;32.63;53.72;99127.63;5050903;28;20195;-64
2023/09/22 10:20:53;;;;;;;6.88;4.82;;;;;;;32.53;49.28;99136.28;5050960;28;20281;-64
2023/09/22 10:23:22;;;;;;;4.85;2.90;;;;;;;32.45;49.96;99128.81;5050807;28;20294;-63
2023/09/22 10:26:15;;;;;;;6.32;3.70;;;;;;;32.67;53.99;99124.22;5060415;28;20231;-63
2023/09/22 10:28:42;;;;;;;3.45;2.80;;;;;;;32.45;48.12;99129.63;5071180;28;20237;-62
2023/09/22 10:31:10;;;;;;;5.03;2.83;;;;;;;32.66;47.32;99121.81;5070830;28;20203;-65
2023/09/22 10:33:37;;;;;;;6.22;4.20;;;;;;;32.72;50.08;99114.72;5070677;28;20202;-62
2023/09/22 10:36:07;;;;;;;5.78;3.65;;;;;;;32.94;56.28;99110.06;5055646;28;20203;-63
2023/09/22 10:38:56;;;;;;;13.25;7.45;;;;;;;32.82;49.54;99112.13;5050804;28;20337;-61
2023/09/22 10:41:23;;;;;;;6.82;3.67;;;;;;;33.04;50.45;99112.00;5047261;28;20231;-65
2023/09/22 10:43:58;;;;;;;5.00;3.47;;;;;;;33.06;50.60;99102.75;5049942;28;20265;-61
2023/09/22 10:46:26;;;;;;;6.30;3.47;;;;;;;33.25;50.40;99102.28;5050367;28;20250;-64
2023/09/22 10:48:53;;;;;;;6.00;3.30;;;;;;;33.43;52.76;99101.84;5050488;28;20207;-63
2023/09/22 10:51:22;;;;;;;5.18;3.33;;;;;;;33.54;49.64;99097.38;5054095;28;20596;-66
2023/09/22 10:53:59;;;;;;;4.35;3.40;;;;;;;33.39;47.79;99100.75;5050480;28;20333;-67
2023/09/22 10:56:26;;;;;;;6.10;3.05;;;;;;;33.36;48.48;99098.63;5050087;28;20199;-66
2023/09/22 10:58:54;;;;;;;4.78;3.20;;;;;;;33.54;51.81;99086.78;5050205;28;20199;-65
2023/09/22 11:01:22;;;;;;;4.53;3.10;;;;;;;33.68;48.44;99090.50;5050379;28;20196;-65
2023/09/22 11:03:53;;;;;;;7.40;3.60;;;;;;;33.68;53.70;99087.06;5050525;28;20316;-64
2023/09/22 11:06:21;;;;;;;7.10;3.28;;;;;;;33.58;49.83;99082.56;5050018;28;20203;-65
2023/09/22 11:08:50;;;;;;;5.90;3.22;;;;;;;33.74;51.47;99084.16;5050145;28;20226;-65
2023/09/22 11:11:18;;;;;;;6.00;3.47;;;;;;;33.46;48.42;99080.09;5049223;28;20762;-65
2023/09/22 11:13:52;;;;;;;5.45;3.50;;;;;;;33.36;50.45;99077.41;5050400;28;20199;-65
2023/09/22 11:16:19;;;;;;;6.18;3.35;;;;;;;33.13;52.17;99074.19;5049832;28;20462;-67
2023/09/22 11:18:48;;;;;;;7.00;3.60;;;;;;;33.21;52.91;99069.41;5070444;28;20202;-64
2023/09/22 11:21:15;;;;;;;6.45;3.40;;;;;;;33.11;50.25;99078.94;5068941;28;20628;-63
2023/09/22 11:23:44;;;;;;;5.32;3.10;;;;;;;33.13;50.03;99070.72;5068803;28;20651;-63
2023/09/22 11:26:13;;;;;;;4.68;3.20;;;;;;;33.29;56.73;99060.97;5049333;28;20192;-63
2023/09/22 11:28:41;;;;;;;7.32;3.40;;;;;;;33.38;54.66;99054.09;5049963;28;20206;-63
2023/09/22 11:31:14;;;;;;;4.43;3.35;;;;;;;33.54;53.25;99058.44;5049524;28;20234;-65